Terminal Aerodrome Forecast
Issued by NWS Mt. Holly, NJ

Home | Current Version | Previous Version | Text Only | Print | Product List | Glossary On
Versions: 1 2 3 4 5 6 7 8 9 10 11 12 13 14 15 16 17 18 19 20 21 22 23 24 25 26 27 28 29 30 31 32 33 34 35 36 37 38 39 40 41 42
000
FTUS41 KPHI 181356 AAC
TAFILG
TAF AMD
KILG 181356Z 1814/1912 08006KT 6SM BR OVC007
      TEMPO 1814/1816 3SM BR OVC005
     FM181700 27005KT P6SM OVC010
     FM182200 29006KT P6SM OVC020
     FM190000 29005KT P6SM SCT020 BKN040
     FM190500 33004KT P6SM BKN200=

USA.gov is the U.S. government's official web portal to all federal, state and local government web resources and services.